Huvudsida
METAR-TAF:

METAR-TAF

Flygplatser :

Kirkenes flygplats. Høybuktmoen

Kirkenes, Norge

latitud: 69-44N, longitud: 029-54E, höjd: 9 m

Aktuellt väderrapport

Denna rapport gjordes för 19 minuter sedan, klockan 00:50 UTC
Vind 15 kt från syd/sydväst, varierande mellan syd och väst/sydväst
Temperatur 6°C
Fuktighet 70%
Tryck 1009 hPa
Sikt 10 km eller mer

METAR: ENKR 210050Z AUTO 21015KT 170V240 9999 OVC100/// 06/01 Q1009 RMK WIND 731FT 23030KT

Tid: 03:09 (01:09 UTC)

Väderprognos

Denna rapport gjordes för 2 timmar och 9 minuter sedan, klockan 23:00 UTC
Prognos gäller från 21 kl. 00 UTC till 21 kl. 09 UTC
Vind 12 kt från syd/sydväst
Sikt 10 km eller mer
Få moln på en höjd av 2000 ft
Brutna moln på en höjd av 5000 ft

TAF: ENKR 202300Z 2100/2109 20012KT 9999 FEW020 BKN050

Aktuella väderrapporter och prognoser från 4000 flygplatser (METAR- och TAF-rapporter).

De tillgängliga stationerna syns som gula och röda prickar på kartan.

För musen över prickarna för att se namnen på stationerna.

Klicka sedan för att få väderrapporter och prognoser.

För att ändra kartan: Klicka på de gröna knapparna med ett svart kors på för att zooma in; den gröna knappen med ett streck på för att zooma ut; eller på de gröna pilarna för angränsande kartor.


METAR-TAF: